Miedwie — C6XP5 — position and weather

sailwx.info

Track history (hours):
 
Tides and Currents Weather Stations Pressure Air Temp Water Temp Dewpoint Dewpoint Depression Visibility Wind Speed Wind Dir Waves Ship Positions

Miedwie

Last reported at 2016-May-25 13:28 UTC. Time now 2016-May-30 06:54 UTC.
Position N 38°14' W 010°11'.

Length 190 m; draft 9.3 m.

Type: Cargo ship. MMSI: 311018300.

Date/timePositionNaut miles runAvg speedWind from/ knotsBaromVisibWave heightAir tempDewpointWater temp
2016-May-25 13:28N 38°14' W 010°11'  
2016-May-22 09:33N 49°53' W 003°11'12 9.9
2016-May-22 08:21N 49°59' W 002°55'7 9.2
2016-May-22 07:33N 50°01' W 002°44'8612.2
2016-May-22 00:28N 50°26' W 000°35'1111.9
2016-May-21 23:33N 50°29' W 000°18'1110.9
2016-May-21 22:33N 50°32' W 000°02'10 9.8
2016-May-21 21:32N 50°34' E 000°13'9 9.1
2016-May-21 20:32N 50°37' E 000°27'4611.6
2016-May-21 16:33N 51°02' E 001°28'9 9.5
2016-May-21 15:33N 51°05' E 001°42'10 9.5
2016-May-21 14:33N 51°02' E 001°57'1010.2
2016-May-21 13:33N 51°04' E 002°13'5 4.6
2016-May-21 12:24N 51°03' E 002°21'3 2.8
2016-May-21 11:30N 51°03' E 002°17'1 0.5
2016-May-21 10:30N 51°03' E 002°16'0 0.0
2016-May-21 09:27N 51°03' E 002°16'0 0.0
2016-May-21 08:30N 51°03' E 002°16'0 0.0
2016-May-21 07:27N 51°03' E 002°16'0 0.0
2016-May-21 06:33N 51°03' E 002°16'0 0.0
2016-May-21 05:33N 51°03' E 002°16'0 0.0
2016-May-21 04:24N 51°03' E 002°16'0 0.0
2016-May-21 03:33N 51°03' E 002°16'0 0.0
2016-May-21 02:09N 51°03' E 002°16'0 0.0
2016-May-21 00:33N 51°03' E 002°16'0 0.0
2016-May-20 23:15N 51°03' E 002°16'0 0.0
2016-May-20 22:21N 51°03' E 002°16'0 0.0
2016-May-20 21:30N 51°03' E 002°16'0 0.0
2016-May-20 20:33N 51°03' E 002°16'0 0.0
2016-May-20 19:27N 51°03' E 002°16'0 0.0
2016-May-20 18:30N 51°03' E 002°16'0 0.0
2016-May-20 17:33N 51°03' E 002°16'0 0.0
2016-May-20 16:33N 51°03' E 002°16'0 0.0
2016-May-20 15:30N 51°03' E 002°16'0 0.0
2016-May-20 14:33N 51°03' E 002°16'0 0.0
2016-May-20 13:33N 51°03' E 002°16'0 0.0
2016-May-20 12:33N 51°03' E 002°16'0 0.0
2016-May-20 11:33N 51°03' E 002°16'0 0.2
2016-May-20 10:34N 51°03' E 002°16'3 2.0
2016-May-20 09:09N 51°03' E 002°21'1 1.4
2016-May-20 08:30N 51°04' E 002°21'5 5.3
2016-May-20 07:33N 51°04' E 002°13'1111.6
2016-May-20 06:33N 51°02' E 001°55'5 4.8
2016-May-20 05:33N 51°04' E 001°48'0 0.2
2016-May-20 04:27N 51°04' E 001°48'0 0.0
2016-May-20 03:33N 51°04' E 001°48'0 0.0
2016-May-20 02:27N 51°04' E 001°48'0 0.0
2016-May-20 01:33N 51°04' E 001°48'0 0.0
2016-May-20 00:33N 51°04' E 001°48'0 0.0
2016-May-19 23:33N 51°04' E 001°48'0 0.0
2016-May-19 22:33N 51°04' E 001°48'0 0.0
2016-May-19 21:33N 51°04' E 001°48'0 0.0
2016-May-19 20:33N 51°04' E 001°48'0 0.2
2016-May-19 19:33N 51°04' E 001°48'0 0.1
2016-May-19 18:33N 51°04' E 001°48'0 0.0
2016-May-19 17:33N 51°04' E 001°48'0 0.0
2016-May-19 16:33N 51°04' E 001°48'0 0.2
2016-May-19 15:33N 51°04' E 001°48'0 0.1
2016-May-19 14:33N 51°04' E 001°48'0 0.0
2016-May-19 13:33N 51°04' E 001°48'0 0.0
2016-May-19 12:33N 51°04' E 001°48'0 0.0
2016-May-19 11:30N 51°04' E 001°48'0 0.0
2016-May-19 10:33N 51°04' E 001°48'0 0.0
2016-May-19 09:33N 51°04' E 001°48'0 0.2
2016-May-19 08:33N 51°04' E 001°48'0 0.1
2016-May-19 07:33N 51°04' E 001°48'0 0.1
2016-May-19 06:33N 51°04' E 001°48'0 0.0
2016-May-19 05:33N 51°04' E 001°48'0 0.0
2016-May-19 04:33N 51°04' E 001°48'0 0.0
2016-May-19 03:33N 51°04' E 001°48'0 0.2
2016-May-19 02:33N 51°04' E 001°48'0 0.1
2016-May-19 01:33N 51°04' E 001°48'0 0.0
2016-May-19 00:33N 51°04' E 001°48'0 0.0
2016-May-18 23:30N 51°04' E 001°48'0 0.0
2016-May-18 22:30N 51°04' E 001°48'0 0.0
2016-May-18 21:33N 51°04' E 001°48'0 0.0
2016-May-18 20:30N 51°04' E 001°48'0 0.0
2016-May-18 19:33N 51°04' E 001°48'0 0.2
2016-May-18 18:33N 51°04' E 001°48'0 0.0
2016-May-18 17:33N 51°04' E 001°48'0 0.0
2016-May-18 16:33N 51°04' E 001°48'0 0.1
2016-May-18 15:33N 51°04' E 001°48'0 0.2
2016-May-18 14:33N 51°04' E 001°48'0 0.0
2016-May-18 13:30N 51°04' E 001°48'0 0.0
2016-May-18 12:30N 51°04' E 001°48'0 0.0
2016-May-18 11:33N 51°04' E 001°48'0 0.0
2016-May-18 10:33N 51°04' E 001°48'0 0.0
2016-May-18 09:33N 51°04' E 001°48'0 0.0
2016-May-18 08:33N 51°04' E 001°48'0 0.1
2016-May-18 07:18N 51°04' E 001°48'0 0.2
2016-May-18 06:33N 51°04' E 001°48'0 0.1
2016-May-18 05:33N 51°04' E 001°48'0 0.0
2016-May-18 04:33N 51°04' E 001°48'0 0.1
2016-May-18 03:33N 51°04' E 001°48'0 0.2
2016-May-18 02:33N 51°04' E 001°48'0 0.1
2016-May-18 01:33N 51°04' E 001°48'0 0.0
2016-May-18 00:33N 51°04' E 001°48'0 0.0
2016-May-17 23:33N 51°04' E 001°48'0 0.0
2016-May-17 22:33N 51°04' E 001°48'0 0.0
2016-May-17 21:33N 51°04' E 001°48'0 0.0
2016-May-17 20:33N 51°04' E 001°48'0 0.0
2016-May-17 19:33N 51°04' E 001°48'0 0.0
2016-May-17 18:30N 51°04' E 001°48'0 0.2
2016-May-17 17:33N 51°04' E 001°48'0 0.0
2016-May-17 16:33N 51°04' E 001°48'0 0.0
2016-May-17 15:33N 51°04' E 001°48'0 0.2
2016-May-17 14:33N 51°04' E 001°48'0 0.1
2016-May-17 13:30N 51°04' E 001°48'0 0.0
2016-May-17 12:30N 51°04' E 001°48'0 0.0
2016-May-17 11:33N 51°04' E 001°48'0 0.0
2016-May-17 10:27N 51°04' E 001°48'0 0.0
2016-May-17 09:33N 51°04' E 001°48'0 0.0
2016-May-17 08:30N 51°04' E 001°48'0 0.0
2016-May-17 07:33N 51°04' E 001°48'0 0.0
2016-May-17 06:33N 51°04' E 001°48'0 0.2
2016-May-17 05:30N 51°04' E 001°48'0 0.1
2016-May-17 04:33N 51°04' E 001°48'0 0.0
2016-May-17 03:33N 51°04' E 001°48'0 0.2
2016-May-17 02:30N 51°04' E 001°48'0 0.1
2016-May-17 01:33N 51°04' E 001°48'0 0.0
2016-May-17 00:33N 51°04' E 001°48'0 0.0
2016-May-16 23:33N 51°04' E 001°48'0 0.0
2016-May-16 22:33N 51°04' E 001°48'0 0.0
2016-May-16 21:33N 51°04' E 001°48'0 0.0
2016-May-16 20:24N 51°04' E 001°48'0 0.0
2016-May-16 19:33N 51°04' E 001°48'0 0.2
2016-May-16 18:33N 51°04' E 001°48'0 0.1
2016-May-16 17:33N 51°04' E 001°48'0 0.0
2016-May-16 16:33N 51°04' E 001°48'0 0.0
2016-May-16 15:33N 51°04' E 001°48'0 0.0
2016-May-16 14:33N 51°04' E 001°48'0 0.0
2016-May-16 13:33N 51°04' E 001°48'0 0.0
2016-May-16 12:33N 51°04' E 001°48'0 0.1
2016-May-16 11:33N 51°04' E 001°48'0 0.2
2016-May-16 10:30N 51°04' E 001°48'0 0.0
2016-May-16 09:33N 51°04' E 001°48'0 0.0
2016-May-16 08:33N 51°04' E 001°48'0 0.0
2016-May-16 07:33N 51°04' E 001°48'0 0.1
2016-May-16 06:33N 51°04' E 001°48'0 0.2
2016-May-16 05:33N 51°04' E 001°48'0 0.0
2016-May-16 04:33N 51°04' E 001°48'0 0.0
2016-May-16 03:33N 51°04' E 001°48'0 0.0
2016-May-16 02:33N 51°04' E 001°48'0 0.0
2016-May-16 01:33N 51°04' E 001°48'0 0.0
2016-May-16 00:33N 51°04' E 001°48'0 0.0
2016-May-15 23:33N 51°04' E 001°48'0 0.2
2016-May-15 22:33N 51°04' E 001°48'0 0.1
2016-May-15 21:24N 51°04' E 001°48'0 0.1
2016-May-15 20:33N 51°04' E 001°48'0 0.0
2016-May-15 19:33N 51°04' E 001°48'0 0.0
2016-May-15 18:33N 51°04' E 001°48'0 0.0
2016-May-15 17:33N 51°04' E 001°48'0 0.1
2016-May-15 16:33N 51°04' E 001°48'0 0.2
2016-May-15 15:33N 51°04' E 001°48'0 0.0
2016-May-15 14:33N 51°04' E 001°48'0 0.0
2016-May-15 13:33N 51°04' E 001°48'  
Track history (hours):
 
Tides and Currents Weather Stations Pressure Air Temp Water Temp Dewpoint Dewpoint Depression Visibility Wind Speed Wind Dir Waves Ship Positions

Miedwie

Last reported at 2016-May-25 13:28 UTC. Time now 2016-May-30 06:54 UTC.
Position N 38°14' W 010°11'.

Length 190 m; draft 9.3 m.

Type: Cargo ship. MMSI: 311018300.

Date/timePositionNaut miles runAvg speedWind from/ knotsBaromVisibWave heightAir tempDewpointWater temp
2016-May-25 13:28N 38°14' W 010°11'  
2016-May-22 09:33N 49°53' W 003°11'12 9.9
2016-May-22 08:21N 49°59' W 002°55'7 9.2
2016-May-22 07:33N 50°01' W 002°44'8612.2
2016-May-22 00:28N 50°26' W 000°35'1111.9
2016-May-21 23:33N 50°29' W 000°18'1110.9
2016-May-21 22:33N 50°32' W 000°02'10 9.8
2016-May-21 21:32N 50°34' E 000°13'9 9.1
2016-May-21 20:32N 50°37' E 000°27'4611.6
2016-May-21 16:33N 51°02' E 001°28'9 9.5
2016-May-21 15:33N 51°05' E 001°42'10 9.5
2016-May-21 14:33N 51°02' E 001°57'1010.2
2016-May-21 13:33N 51°04' E 002°13'5 4.6
2016-May-21 12:24N 51°03' E 002°21'3 2.8
2016-May-21 11:30N 51°03' E 002°17'1 0.5
2016-May-21 10:30N 51°03' E 002°16'0 0.0
2016-May-21 09:27N 51°03' E 002°16'0 0.0
2016-May-21 08:30N 51°03' E 002°16'0 0.0
2016-May-21 07:27N 51°03' E 002°16'0 0.0
2016-May-21 06:33N 51°03' E 002°16'0 0.0
2016-May-21 05:33N 51°03' E 002°16'0 0.0
2016-May-21 04:24N 51°03' E 002°16'0 0.0
2016-May-21 03:33N 51°03' E 002°16'0 0.0
2016-May-21 02:09N 51°03' E 002°16'0 0.0
2016-May-21 00:33N 51°03' E 002°16'0 0.0
2016-May-20 23:15N 51°03' E 002°16'0 0.0
2016-May-20 22:21N 51°03' E 002°16'0 0.0
2016-May-20 21:30N 51°03' E 002°16'0 0.0
2016-May-20 20:33N 51°03' E 002°16'0 0.0
2016-May-20 19:27N 51°03' E 002°16'0 0.0
2016-May-20 18:30N 51°03' E 002°16'0 0.0
2016-May-20 17:33N 51°03' E 002°16'0 0.0
2016-May-20 16:33N 51°03' E 002°16'0 0.0
2016-May-20 15:30N 51°03' E 002°16'0 0.0
2016-May-20 14:33N 51°03' E 002°16'0 0.0
2016-May-20 13:33N 51°03' E 002°16'0 0.0
2016-May-20 12:33N 51°03' E 002°16'0 0.0
2016-May-20 11:33N 51°03' E 002°16'0 0.2
2016-May-20 10:34N 51°03' E 002°16'3 2.0
2016-May-20 09:09N 51°03' E 002°21'1 1.4
2016-May-20 08:30N 51°04' E 002°21'5 5.3
2016-May-20 07:33N 51°04' E 002°13'1111.6
2016-May-20 06:33N 51°02' E 001°55'5 4.8
2016-May-20 05:33N 51°04' E 001°48'0 0.2
2016-May-20 04:27N 51°04' E 001°48'0 0.0
2016-May-20 03:33N 51°04' E 001°48'0 0.0
2016-May-20 02:27N 51°04' E 001°48'0 0.0
2016-May-20 01:33N 51°04' E 001°48'0 0.0
2016-May-20 00:33N 51°04' E 001°48'0 0.0
2016-May-19 23:33N 51°04' E 001°48'0 0.0
2016-May-19 22:33N 51°04' E 001°48'0 0.0
2016-May-19 21:33N 51°04' E 001°48'0 0.0
2016-May-19 20:33N 51°04' E 001°48'0 0.2
2016-May-19 19:33N 51°04' E 001°48'0 0.1
2016-May-19 18:33N 51°04' E 001°48'0 0.0
2016-May-19 17:33N 51°04' E 001°48'0 0.0
2016-May-19 16:33N 51°04' E 001°48'0 0.2
2016-May-19 15:33N 51°04' E 001°48'0 0.1
2016-May-19 14:33N 51°04' E 001°48'0 0.0
2016-May-19 13:33N 51°04' E 001°48'0 0.0
2016-May-19 12:33N 51°04' E 001°48'0 0.0
2016-May-19 11:30N 51°04' E 001°48'0 0.0
2016-May-19 10:33N 51°04' E 001°48'0 0.0
2016-May-19 09:33N 51°04' E 001°48'0 0.2
2016-May-19 08:33N 51°04' E 001°48'0 0.1
2016-May-19 07:33N 51°04' E 001°48'0 0.1
2016-May-19 06:33N 51°04' E 001°48'0 0.0
2016-May-19 05:33N 51°04' E 001°48'0 0.0
2016-May-19 04:33N 51°04' E 001°48'0 0.0
2016-May-19 03:33N 51°04' E 001°48'0 0.2
2016-May-19 02:33N 51°04' E 001°48'0 0.1
2016-May-19 01:33N 51°04' E 001°48'0 0.0
2016-May-19 00:33N 51°04' E 001°48'0 0.0
2016-May-18 23:30N 51°04' E 001°48'0 0.0
2016-May-18 22:30N 51°04' E 001°48'0 0.0
2016-May-18 21:33N 51°04' E 001°48'0 0.0
2016-May-18 20:30N 51°04' E 001°48'0 0.0
2016-May-18 19:33N 51°04' E 001°48'0 0.2
2016-May-18 18:33N 51°04' E 001°48'0 0.0
2016-May-18 17:33N 51°04' E 001°48'0 0.0
2016-May-18 16:33N 51°04' E 001°48'0 0.1
2016-May-18 15:33N 51°04' E 001°48'0 0.2
2016-May-18 14:33N 51°04' E 001°48'0 0.0
2016-May-18 13:30N 51°04' E 001°48'0 0.0
2016-May-18 12:30N 51°04' E 001°48'0 0.0
2016-May-18 11:33N 51°04' E 001°48'0 0.0
2016-May-18 10:33N 51°04' E 001°48'0 0.0
2016-May-18 09:33N 51°04' E 001°48'0 0.0
2016-May-18 08:33N 51°04' E 001°48'0 0.1
2016-May-18 07:18N 51°04' E 001°48'0 0.2
2016-May-18 06:33N 51°04' E 001°48'0 0.1
2016-May-18 05:33N 51°04' E 001°48'0 0.0
2016-May-18 04:33N 51°04' E 001°48'0 0.1
2016-May-18 03:33N 51°04' E 001°48'0 0.2
2016-May-18 02:33N 51°04' E 001°48'0 0.1
2016-May-18 01:33N 51°04' E 001°48'0 0.0
2016-May-18 00:33N 51°04' E 001°48'0 0.0
2016-May-17 23:33N 51°04' E 001°48'0 0.0
2016-May-17 22:33N 51°04' E 001°48'0 0.0
2016-May-17 21:33N 51°04' E 001°48'0 0.0
2016-May-17 20:33N 51°04' E 001°48'0 0.0
2016-May-17 19:33N 51°04' E 001°48'0 0.0
2016-May-17 18:30N 51°04' E 001°48'0 0.2
2016-May-17 17:33N 51°04' E 001°48'0 0.0
2016-May-17 16:33N 51°04' E 001°48'0 0.0
2016-May-17 15:33N 51°04' E 001°48'0 0.2
2016-May-17 14:33N 51°04' E 001°48'0 0.1
2016-May-17 13:30N 51°04' E 001°48'0 0.0
2016-May-17 12:30N 51°04' E 001°48'0 0.0
2016-May-17 11:33N 51°04' E 001°48'0 0.0
2016-May-17 10:27N 51°04' E 001°48'0 0.0
2016-May-17 09:33N 51°04' E 001°48'0 0.0
2016-May-17 08:30N 51°04' E 001°48'0 0.0
2016-May-17 07:33N 51°04' E 001°48'0 0.0
2016-May-17 06:33N 51°04' E 001°48'0 0.2
2016-May-17 05:30N 51°04' E 001°48'0 0.1
2016-May-17 04:33N 51°04' E 001°48'0 0.0
2016-May-17 03:33N 51°04' E 001°48'0 0.2
2016-May-17 02:30N 51°04' E 001°48'0 0.1
2016-May-17 01:33N 51°04' E 001°48'0 0.0
2016-May-17 00:33N 51°04' E 001°48'0 0.0
2016-May-16 23:33N 51°04' E 001°48'0 0.0
2016-May-16 22:33N 51°04' E 001°48'0 0.0
2016-May-16 21:33N 51°04' E 001°48'0 0.0
2016-May-16 20:24N 51°04' E 001°48'0 0.0
2016-May-16 19:33N 51°04' E 001°48'0 0.2
2016-May-16 18:33N 51°04' E 001°48'0 0.1
2016-May-16 17:33N 51°04' E 001°48'0 0.0
2016-May-16 16:33N 51°04' E 001°48'0 0.0
2016-May-16 15:33N 51°04' E 001°48'0 0.0
2016-May-16 14:33N 51°04' E 001°48'0 0.0
2016-May-16 13:33N 51°04' E 001°48'0 0.0
2016-May-16 12:33N 51°04' E 001°48'0 0.1
2016-May-16 11:33N 51°04' E 001°48'0 0.2
2016-May-16 10:30N 51°04' E 001°48'0 0.0
2016-May-16 09:33N 51°04' E 001°48'0 0.0
2016-May-16 08:33N 51°04' E 001°48'0 0.0
2016-May-16 07:33N 51°04' E 001°48'0 0.1
2016-May-16 06:33N 51°04' E 001°48'0 0.2
2016-May-16 05:33N 51°04' E 001°48'0 0.0
2016-May-16 04:33N 51°04' E 001°48'0 0.0
2016-May-16 03:33N 51°04' E 001°48'0 0.0
2016-May-16 02:33N 51°04' E 001°48'0 0.0
2016-May-16 01:33N 51°04' E 001°48'0 0.0
2016-May-16 00:33N 51°04' E 001°48'0 0.0
2016-May-15 23:33N 51°04' E 001°48'0 0.2
2016-May-15 22:33N 51°04' E 001°48'0 0.1
2016-May-15 21:24N 51°04' E 001°48'0 0.1
2016-May-15 20:33N 51°04' E 001°48'0 0.0
2016-May-15 19:33N 51°04' E 001°48'0 0.0
2016-May-15 18:33N 51°04' E 001°48'0 0.0
2016-May-15 17:33N 51°04' E 001°48'0 0.1
2016-May-15 16:33N 51°04' E 001°48'0 0.2
2016-May-15 15:33N 51°04' E 001°48'0 0.0
2016-May-15 14:33N 51°04' E 001°48'0 0.0
2016-May-15 13:33N 51°04' E 001°48'  

Dump ship's entire track history